Terminal Aerodrome Forecast
Issued by NWS Missoula, MT

Home | Current Version | Previous Version | Text Only | Print | Product List | Glossary On
Versions: 1 2 3 4 5 6 7 8 9 10 11 12 13 14 15 16
000
FTUS45 KMSO 240000 AAA
TAFGPI
TAF AMD
KGPI 240049Z 2401/2424 20015G35KT P6SM TSRA BKN070CB
     FM240200 19008KT P6SM VCTS BKN070CB
     FM240600 25015G25KT P6SM -SHRA BKN090=

USA.gov is the U.S. government's official web portal to all federal, state and local government web resources and services.